Pagrindinis puslapis
METAR-TAF:

METAR-TAF

Oro uostai :

Port Saidas, Egiptas

platuma: 31-16N, ilguma: 032-18E, Aukštis: 6 m

Dabartinis oras

Ataskaita buvo paskelbta 30 minutes, ne 14:00 UTC
Vėjas 4 kt iš Šiaurės Rytų
Temperatūra 25°C
Drėgmė 61%
Slėgis 1011 hPa
Matomumas 10 km arba daugiau
nėra debesų žemiau 1500 m ir nėra kamuolinių lietaus debesų

METAR: HEPS 201400Z 05004KT CAVOK 25/17 Q1011 NOSIG

Laikas: 16:30 (14:30 UTC)

Prognozė

Ataskaita buvo paskelbta 3 valandos ir 30 minutes, ne 11:00 UTC
Prognozė galioja nuo 20 metu 12 UTC su 21 metu 18 UTC
Vėjas 10 kt iš Šiaurės/Šiaurės Rytų
Matomumas 10 km arba daugiau
Mažai debesys ne aukštis 2000 ft
Tapsmas
nuo 20 metu 12 UTC su 20 metu 14 UTC
Vėjas 8 kt iš Šiaurės Vakarų su gūsio iki 18 kt

TAF: HEPS 201100Z 2012/2118 02010KT 9999 FEW020 BECMG 2012/2014 32008G18KT

Orai ataskaitas ir orų prognozės (METAR, TAF).

turimą stotys yra geltonos ir raudonos taškus žemėlapyje.

Perkelti pele per norėdami pamatyti stoties vardą.

Tada spustelėkite, norėdami matyti oro stebėjimo ir prognozės.

Norėdami pakeisti žemėlapį: spustelėkite ant žalios mygtukų su juodo kryžiaus žemyn,; žalią mygtuką su brūkšneliu, jei norite nutolinti; arba žalių rodyklių gretimoms žemėlapius.


METAR-TAF: